Time;durP1;ratioP1;P1;durP2;ratioP2;P2;SDS_P1;SDS_P2;PMS_P1;PMS_P2;Temp;Humidity;BMP_temperature;BMP_pressure;BME280_temperature;BME280_humidity;BME280_pressure;Samples;Min_cycle;Max_cycle;Signal;HPM_P1;HPM_P2
2024/01/30 00:00:51;;;;;;;8.63;3.95;;;;;;;-141.50;100.00;63355.56;5091153;28;20468;-80
2024/01/30 00:03:18;;;;;;;12.20;4.57;;;;;;;-141.50;100.00;63355.56;5108963;28;20244;-80
2024/01/30 00:05:45;;;;;;;9.88;3.97;;;;;;;-141.50;100.00;63355.56;5109759;28;20044;-77
2024/01/30 00:08:11;;;;;;;12.13;4.47;;;;;;;-141.50;100.00;63355.56;5112823;28;20052;-77
2024/01/30 00:10:38;;;;;;;9.75;4.10;;;;;;;-141.50;100.00;63355.56;5092717;28;20055;-78
2024/01/30 00:13:05;;;;;;;14.82;4.63;;;;;;;-141.50;100.00;63355.56;5110412;28;20071;-80
2024/01/30 00:15:32;;;;;;;9.68;4.38;;;;;;;-141.50;100.00;63355.56;5108533;28;20047;-79
2024/01/30 00:17:59;;;;;;;14.38;4.32;;;;;;;-141.50;100.00;63355.56;5108731;28;20057;-79
2024/01/30 00:20:25;;;;;;;14.10;4.53;;;;;;;-141.50;100.00;63355.56;5088064;28;20383;-79
2024/01/30 00:22:52;;;;;;;12.93;4.45;;;;;;;-141.50;100.00;63355.56;5111091;28;20116;-81
2024/01/30 00:25:20;;;;;;;10.80;4.60;;;;;;;-141.50;100.00;63355.56;5108544;28;20055;-80
2024/01/30 00:27:47;;;;;;;11.80;4.18;;;;;;;-141.50;100.00;63355.56;5072617;28;20050;-80
2024/01/30 00:30:14;;;;;;;10.13;4.57;;;;;;;-141.50;100.00;63355.56;5113569;28;20055;-78
2024/01/30 00:32:41;;;;;;;12.20;4.60;;;;;;;-141.50;100.00;63355.56;5095179;28;20050;-78
2024/01/30 00:35:09;;;;;;;14.38;4.43;;;;;;;-141.50;100.00;63355.56;5113161;28;20079;-79
2024/01/30 00:37:37;;;;;;;11.98;4.60;;;;;;;-141.50;100.00;63355.56;5118187;28;20043;-79
2024/01/30 00:40:04;;;;;;;10.98;4.07;;;;;;;-141.50;100.00;63355.56;5110986;28;20051;-78
2024/01/30 00:42:30;;;;;;;13.52;4.20;;;;;;;-141.50;100.00;63355.56;5114481;28;20044;-77
2024/01/30 00:44:58;;;;;;;10.75;4.45;;;;;;;-141.50;100.00;63355.56;5099905;28;20059;-78
2024/01/30 00:47:24;;;;;;;7.95;3.70;;;;;;;-141.50;100.00;63355.56;5110277;28;20101;-77
2024/01/30 00:49:51;;;;;;;11.10;3.60;;;;;;;-141.50;100.00;63355.56;5071094;28;20059;-77
2024/01/30 00:52:18;;;;;;;10.02;3.50;;;;;;;-141.50;100.00;63355.56;5088370;28;20054;-80
2024/01/30 00:54:44;;;;;;;8.80;3.50;;;;;;;-141.50;100.00;63355.56;5106265;28;20200;-79
2024/01/30 00:57:11;;;;;;;11.57;4.10;;;;;;;-141.50;100.00;63355.56;5087820;28;20059;-78
2024/01/30 00:59:38;;;;;;;10.10;3.75;;;;;;;-141.50;100.00;63355.56;5104119;28;20162;-77
2024/01/30 01:02:05;;;;;;;10.43;4.05;;;;;;;-141.50;100.00;63355.56;5108406;28;20058;-78
2024/01/30 01:04:31;;;;;;;9.45;3.72;;;;;;;-141.50;100.00;63355.56;5090435;28;20092;-78
2024/01/30 01:06:58;;;;;;;9.57;3.67;;;;;;;-141.50;100.00;63355.56;5108166;28;20059;-78
2024/01/30 01:09:26;;;;;;;13.95;4.03;;;;;;;-141.50;100.00;63355.56;5090126;28;20131;-79
2024/01/30 01:11:53;;;;;;;9.77;3.78;;;;;;;-141.50;100.00;63355.56;5107014;28;20040;-79
2024/01/30 01:14:19;;;;;;;10.85;3.92;;;;;;;-141.50;100.00;63355.56;5107410;28;20054;-80
2024/01/30 01:16:46;;;;;;;11.63;4.65;;;;;;;-141.50;100.00;63355.56;5088396;28;20097;-80
2024/01/30 01:19:13;;;;;;;12.15;4.30;;;;;;;-141.50;100.00;63355.56;5090316;28;20115;-78
2024/01/30 01:21:40;;;;;;;11.52;4.05;;;;;;;-141.50;100.00;63355.56;5110470;28;20572;-80
2024/01/30 01:24:07;;;;;;;15.85;4.85;;;;;;;-141.50;100.00;63355.56;5091920;28;20060;-78
2024/01/30 01:26:33;;;;;;;16.80;4.80;;;;;;;-141.50;100.00;63355.56;5104854;28;20048;-79
2024/01/30 01:29:00;;;;;;;11.93;4.03;;;;;;;-141.50;100.00;63355.56;5084452;28;20478;-80
2024/01/30 01:31:29;;;;;;;10.77;4.10;;;;;;;-141.50;100.00;63355.56;5072432;28;20549;-78
2024/01/30 01:33:56;;;;;;;10.18;3.75;;;;;;;-141.50;100.00;63355.56;5120984;28;20069;-78
2024/01/30 01:36:23;;;;;;;7.93;3.25;;;;;;;-141.50;100.00;63355.56;5079002;28;20056;-79
2024/01/30 01:38:50;;;;;;;10.48;3.72;;;;;;;-141.50;100.00;63355.56;5077892;28;20055;-81
2024/01/30 01:41:17;;;;;;;13.57;4.22;;;;;;;-141.50;100.00;63355.56;5112343;28;20082;-78
2024/01/30 01:43:44;;;;;;;10.73;4.07;;;;;;;-141.50;100.00;63355.56;5111394;28;20055;-79
2024/01/30 01:46:11;;;;;;;9.70;3.58;;;;;;;-141.50;100.00;63355.56;5091245;28;20083;-78
2024/01/30 01:48:39;;;;;;;9.77;3.67;;;;;;;-141.50;100.00;63355.56;5107209;28;20055;-77
2024/01/30 01:51:07;;;;;;;13.93;3.72;;;;;;;-141.50;100.00;63355.56;5094386;28;20074;-77
2024/01/30 01:53:34;;;;;;;11.40;3.90;;;;;;;-141.50;100.00;63355.56;5115359;28;20130;-79
2024/01/30 01:56:00;;;;;;;9.75;3.90;;;;;;;-141.50;100.00;63355.56;5107174;28;20067;-79
2024/01/30 01:58:28;;;;;;;13.98;3.70;;;;;;;-141.50;100.00;63355.56;5093425;28;20043;-79
2024/01/30 02:00:56;;;;;;;14.55;3.78;;;;;;;-141.50;100.00;63355.56;5092332;28;20506;-79
2024/01/30 02:03:23;;;;;;;11.65;4.13;;;;;;;-141.50;100.00;63355.56;5093164;28;20056;-80
2024/01/30 02:05:51;;;;;;;8.32;3.50;;;;;;;-141.50;100.00;63355.56;5087974;28;20043;-78
2024/01/30 02:08:18;;;;;;;10.98;3.97;;;;;;;-141.50;100.00;63355.56;5107013;28;20063;-79
2024/01/30 02:10:45;;;;;;;12.63;4.45;;;;;;;-141.50;100.00;63355.56;5089881;28;20040;-77
2024/01/30 02:13:14;;;;;;;11.57;4.28;;;;;;;-141.50;100.00;63355.56;5112153;28;20168;-77
2024/01/30 02:15:41;;;;;;;10.80;3.60;;;;;;;-141.50;100.00;63355.56;5115169;28;20054;-78
2024/01/30 02:18:08;;;;;;;12.27;3.75;;;;;;;-141.50;100.00;63355.56;5109197;28;20234;-78
2024/01/30 02:20:37;;;;;;;11.70;3.63;;;;;;;-141.50;100.00;63355.56;5086815;28;20040;-78
2024/01/30 02:23:04;;;;;;;13.00;3.83;;;;;;;-141.50;100.00;63355.56;5099604;28;20067;-77
2024/01/30 02:25:33;;;;;;;11.55;3.75;;;;;;;-141.50;100.00;63355.56;5088731;28;20044;-77
2024/01/30 02:28:00;;;;;;;7.95;3.75;;;;;;;-141.50;100.00;63355.56;5110862;28;20061;-80
2024/01/30 02:30:27;;;;;;;9.07;3.63;;;;;;;-141.50;100.00;63355.56;5115715;28;20032;-76
2024/01/30 02:32:53;;;;;;;8.77;3.80;;;;;;;-141.50;100.00;63355.56;5107197;28;20104;-80
2024/01/30 02:35:20;;;;;;;13.02;4.22;;;;;;;-141.50;100.00;63355.56;5110055;28;20139;-78
2024/01/30 02:37:47;;;;;;;11.48;3.58;;;;;;;-141.50;100.00;63355.56;5086873;28;20556;-77
2024/01/30 02:40:14;;;;;;;12.98;3.85;;;;;;;-141.50;100.00;63355.56;5110351;28;20064;-79
2024/01/30 02:42:41;;;;;;;9.57;3.78;;;;;;;-141.50;100.00;63355.56;5096889;28;20502;-80
2024/01/30 02:45:09;;;;;;;8.75;3.35;;;;;;;-141.50;100.00;63355.56;5096734;28;20122;-80
2024/01/30 02:47:36;;;;;;;9.65;3.72;;;;;;;-141.50;100.00;63355.56;5091456;28;20536;-80
2024/01/30 02:50:03;;;;;;;11.07;4.22;;;;;;;-141.50;100.00;63355.56;5089675;28;20322;-80
2024/01/30 02:52:30;;;;;;;9.85;3.78;;;;;;;-141.50;100.00;63355.56;5089809;28;20103;-78
2024/01/30 02:54:59;;;;;;;14.57;4.15;;;;;;;-141.50;100.00;63355.56;5092305;28;20052;-77
2024/01/30 02:57:26;;;;;;;13.35;3.75;;;;;;;-141.50;100.00;63355.56;5102440;28;20048;-76
2024/01/30 02:59:53;;;;;;;9.65;3.70;;;;;;;-141.50;100.00;63355.56;5122882;28;20052;-79
2024/01/30 03:02:23;;;;;;;10.98;4.03;;;;;;;-141.50;100.00;63355.56;5092878;28;20062;-81
2024/01/30 03:04:49;;;;;;;10.95;3.75;;;;;;;-141.50;100.00;63355.56;5106898;28;20044;-80
2024/01/30 03:07:16;;;;;;;10.13;3.97;;;;;;;-141.50;100.00;63355.56;5110507;28;20635;-81
2024/01/30 03:09:44;;;;;;;14.15;4.07;;;;;;;-141.50;100.00;63355.56;5090360;28;20514;-78
2024/01/30 03:12:11;;;;;;;12.50;3.95;;;;;;;-141.50;100.00;63355.56;5091659;28;20059;-77
2024/01/30 03:14:37;;;;;;;10.43;4.15;;;;;;;-141.50;100.00;63355.56;5089647;28;20043;-79
2024/01/30 03:17:04;;;;;;;11.60;4.20;;;;;;;-141.50;100.00;63355.56;5110676;28;20051;-78
2024/01/30 03:19:31;;;;;;;10.68;3.80;;;;;;;-141.50;100.00;63355.56;5111446;28;20043;-79
2024/01/30 03:21:59;;;;;;;10.90;3.88;;;;;;;-141.50;100.00;63355.56;5111438;28;20043;-79
2024/01/30 03:24:26;;;;;;;13.88;4.60;;;;;;;-141.50;100.00;63355.56;5088574;28;20123;-80
2024/01/30 03:26:53;;;;;;;8.60;3.95;;;;;;;-141.50;100.00;63355.56;5113179;28;20097;-79
2024/01/30 03:29:20;;;;;;;10.23;3.75;;;;;;;-141.50;100.00;63355.56;5117916;27;20055;-80
2024/01/30 03:31:46;;;;;;;8.95;3.60;;;;;;;-141.50;100.00;63355.56;5091360;28;20047;-81
2024/01/30 03:34:13;;;;;;;12.63;3.75;;;;;;;-141.50;100.00;63355.56;5107702;28;20428;-79
2024/01/30 03:36:40;;;;;;;9.82;4.03;;;;;;;-141.50;100.00;63355.56;5112022;28;20063;-78
2024/01/30 03:39:07;;;;;;;9.52;3.58;;;;;;;-141.50;100.00;63355.56;5093171;28;20043;-77
2024/01/30 03:41:34;;;;;;;9.25;3.42;;;;;;;-141.50;100.00;63355.56;5094870;28;20115;-80
2024/01/30 03:44:01;;;;;;;10.38;4.00;;;;;;;-141.50;100.00;63355.56;5074429;28;20089;-79
2024/01/30 03:46:28;;;;;;;9.63;3.65;;;;;;;-141.50;100.00;63355.56;5108661;28;20039;-79
2024/01/30 03:48:55;;;;;;;11.85;4.13;;;;;;;-141.50;100.00;63355.56;5111383;28;20040;-78
2024/01/30 03:51:21;;;;;;;8.30;3.88;;;;;;;-141.50;100.00;63355.56;5106218;28;20056;-78
2024/01/30 03:53:48;;;;;;;10.52;4.07;;;;;;;-141.50;100.00;63355.56;5109210;28;20108;-80
2024/01/30 03:56:15;;;;;;;10.43;4.28;;;;;;;-141.50;100.00;63355.56;5085155;28;20074;-78
2024/01/30 03:58:42;;;;;;;10.73;4.10;;;;;;;-141.50;100.00;63355.56;5108592;28;20070;-80
2024/01/30 04:01:15;;;;;;;10.02;3.80;;;;;;;-141.50;100.00;63355.56;5092400;28;20165;-81
2024/01/30 04:03:43;;;;;;;12.95;4.50;;;;;;;-141.50;100.00;63355.56;5094652;28;20044;-81
2024/01/30 04:06:11;;;;;;;12.40;4.13;;;;;;;-141.50;100.00;63355.56;5077229;28;21402;-78
2024/01/30 04:08:38;;;;;;;10.23;4.40;;;;;;;-141.50;100.00;63355.56;5093128;28;20044;-81
2024/01/30 04:11:05;;;;;;;11.40;4.05;;;;;;;-141.50;100.00;63355.56;5111189;28;20115;-79
2024/01/30 04:13:35;;;;;;;9.82;3.67;;;;;;;-141.50;100.00;63355.56;5110378;28;20135;-77
2024/01/30 04:16:03;;;;;;;12.98;3.80;;;;;;;-141.50;100.00;63355.56;5085630;28;20101;-79
2024/01/30 04:18:30;;;;;;;9.20;3.92;;;;;;;-141.50;100.00;63355.56;5091999;28;20155;-82
2024/01/30 04:20:57;;;;;;;9.85;3.65;;;;;;;-141.50;100.00;63355.56;5107260;28;20058;-76
2024/01/30 04:23:24;;;;;;;10.80;4.25;;;;;;;-141.50;100.00;63355.56;5118755;28;20127;-76
2024/01/30 04:25:51;;;;;;;11.02;4.00;;;;;;;-141.50;100.00;63355.56;5117951;28;20039;-77
2024/01/30 04:28:18;;;;;;;6.93;3.40;;;;;;;-141.50;100.00;63355.56;5104259;28;20071;-77
2024/01/30 04:30:45;;;;;;;10.43;3.92;;;;;;;-141.50;100.00;63355.56;5111815;27;20036;-76
2024/01/30 04:33:12;;;;;;;8.73;3.22;;;;;;;-141.50;100.00;63355.56;5112525;28;20075;-78
2024/01/30 04:35:38;;;;;;;9.98;3.35;;;;;;;-141.50;100.00;63355.56;5090403;28;20040;-77
2024/01/30 04:38:05;;;;;;;9.95;3.42;;;;;;;-141.50;100.00;63355.56;5092026;28;20047;-79
2024/01/30 04:40:32;;;;;;;9.27;3.50;;;;;;;-141.50;100.00;63355.56;5089570;28;20036;-80
2024/01/30 04:42:58;;;;;;;10.68;3.80;;;;;;;-141.50;100.00;63355.56;5109383;28;20039;-80
2024/01/30 04:45:25;;;;;;;10.00;3.58;;;;;;;-141.50;100.00;63355.56;5105582;28;20051;-82
2024/01/30 04:47:52;;;;;;;11.40;3.45;;;;;;;-141.50;100.00;63355.56;5087996;28;20048;-78
2024/01/30 04:50:19;;;;;;;6.82;3.00;;;;;;;-141.50;100.00;63355.56;5087411;28;20393;-78
2024/01/30 04:52:45;;;;;;;8.07;3.38;;;;;;;-141.50;100.00;63355.56;5088274;28;20040;-79
2024/01/30 04:55:12;;;;;;;8.02;3.03;;;;;;;-141.50;100.00;63355.56;5106178;27;20063;-78
2024/01/30 04:57:39;;;;;;;10.40;3.72;;;;;;;-141.50;100.00;63355.56;5087145;28;20048;-81
2024/01/30 05:00:09;;;;;;;8.55;3.53;;;;;;;-141.50;100.00;63355.56;5106450;28;20405;-79
2024/01/30 05:02:35;;;;;;;8.05;3.17;;;;;;;-141.50;100.00;63355.56;5105703;28;20521;-81
2024/01/30 05:05:03;;;;;;;8.20;3.85;;;;;;;-141.50;100.00;63355.56;5087382;28;20096;-78
2024/01/30 05:07:32;;;;;;;9.50;3.45;;;;;;;-141.50;100.00;63355.56;5105356;28;20058;-78
2024/01/30 05:09:59;;;;;;;8.82;3.28;;;;;;;-141.50;100.00;63355.56;5069292;28;20051;-79
2024/01/30 05:12:29;;;;;;;7.13;2.95;;;;;;;-141.50;100.00;63355.56;5088968;28;20039;-81
2024/01/30 05:14:56;;;;;;;8.57;2.92;;;;;;;-141.50;100.00;63355.56;5079946;28;20136;-78
2024/01/30 05:17:23;;;;;;;7.03;2.67;;;;;;;-141.50;100.00;63355.56;5085663;28;20052;-78
2024/01/30 05:19:49;;;;;;;8.60;3.08;;;;;;;-141.50;100.00;63355.56;5088752;28;20096;-76
2024/01/30 05:22:18;;;;;;;6.15;3.03;;;;;;;-141.50;100.00;63355.56;5123646;28;20059;-77
2024/01/30 05:24:45;;;;;;;7.60;3.90;;;;;;;-141.50;100.00;63355.56;5109253;28;20521;-78
2024/01/30 05:27:13;;;;;;;12.65;4.45;;;;;;;-141.50;100.00;63355.56;5102783;28;20119;-79
2024/01/30 05:29:43;;;;;;;12.75;5.25;;;;;;;-141.50;100.00;63355.56;5105454;28;20103;-78
2024/01/30 05:32:10;;;;;;;17.77;6.75;;;;;;;-141.50;100.00;63355.56;5100824;28;20517;-82
2024/01/30 05:34:37;;;;;;;9.23;3.90;;;;;;;-141.50;100.00;63355.56;5075151;28;20054;-83
2024/01/30 05:37:04;;;;;;;10.98;4.15;;;;;;;-141.50;100.00;63355.56;5113080;28;20585;-81
2024/01/30 05:39:32;;;;;;;11.95;4.13;;;;;;;-141.50;100.00;63355.56;5111419;28;20056;-83
2024/01/30 05:41:59;;;;;;;8.80;3.20;;;;;;;-141.50;100.00;63355.56;5094718;28;20050;-81
2024/01/30 05:44:26;;;;;;;6.95;2.85;;;;;;;-141.50;100.00;63355.56;5110095;28;20044;-81
2024/01/30 05:46:53;;;;;;;8.73;2.90;;;;;;;-141.50;100.00;63355.56;5091434;28;20062;-82
2024/01/30 05:49:20;;;;;;;7.55;3.20;;;;;;;-141.50;100.00;63355.56;5085240;28;20139;-82
2024/01/30 05:51:47;;;;;;;7.00;3.00;;;;;;;-141.50;100.00;63355.56;5077262;28;20533;-80
2024/01/30 05:54:13;;;;;;;8.65;3.42;;;;;;;-141.50;100.00;63355.56;5102330;28;20039;-78
2024/01/30 05:56:43;;;;;;;8.60;3.42;;;;;;;-141.50;100.00;63355.56;5107215;28;20096;-78
2024/01/30 05:59:10;;;;;;;6.75;3.28;;;;;;;-141.50;100.00;63355.56;5105126;28;20057;-79
2024/01/30 06:01:36;;;;;;;8.93;3.45;;;;;;;-141.50;100.00;63355.56;5103691;28;20043;-79
2024/01/30 06:04:03;;;;;;;6.88;2.90;;;;;;;-141.50;100.00;63355.56;5089884;28;20047;-78
2024/01/30 06:06:30;;;;;;;9.40;3.55;;;;;;;-141.50;100.00;63355.56;5108706;28;20039;-79
2024/01/30 06:08:57;;;;;;;6.63;2.95;;;;;;;-141.50;100.00;63355.56;5110010;28;20221;-78
2024/01/30 06:11:24;;;;;;;11.48;3.40;;;;;;;-141.50;100.00;63355.56;5074208;28;20506;-75
2024/01/30 06:13:51;;;;;;;8.73;3.65;;;;;;;-141.50;100.00;63355.56;5090403;28;20063;-77
2024/01/30 06:16:20;;;;;;;8.38;3.08;;;;;;;-141.50;100.00;63355.56;5090772;28;20046;-77
2024/01/30 06:18:47;;;;;;;7.93;3.22;;;;;;;-141.50;100.00;63355.56;5116001;28;20102;-77
2024/01/30 06:21:14;;;;;;;8.77;3.17;;;;;;;-141.50;100.00;63355.56;5109276;28;20051;-76
2024/01/30 06:23:41;;;;;;;7.60;3.33;;;;;;;-141.50;100.00;63355.56;5089567;28;20097;-77
2024/01/30 06:26:08;;;;;;;9.07;3.67;;;;;;;-141.50;100.00;63355.56;5087225;28;20043;-78
2024/01/30 06:28:34;;;;;;;8.50;3.35;;;;;;;-141.50;100.00;63355.56;5105829;28;20044;-77
2024/01/30 06:31:04;;;;;;;9.63;3.50;;;;;;;-141.50;100.00;63355.56;5107392;28;20051;-78
2024/01/30 06:33:31;;;;;;;9.55;3.20;;;;;;;-141.50;100.00;63355.56;5093866;28;20517;-79
2024/01/30 06:35:57;;;;;;;8.02;2.97;;;;;;;-141.50;100.00;63355.56;5080295;28;20044;-81
2024/01/30 06:38:24;;;;;;;6.97;3.20;;;;;;;-141.50;100.00;63355.56;5078646;28;20051;-78
2024/01/30 06:40:51;;;;;;;6.35;2.33;;;;;;;-141.50;100.00;63355.56;5107565;28;20047;-79
2024/01/30 06:43:18;;;;;;;8.55;2.65;;;;;;;-141.50;100.00;63355.56;5090031;28;20063;-80
2024/01/30 06:45:44;;;;;;;6.65;2.75;;;;;;;-141.50;100.00;63355.56;5090563;28;20505;-77
2024/01/30 06:48:11;;;;;;;6.82;2.78;;;;;;;-141.50;100.00;63355.56;5090064;28;20036;-78
2024/01/30 06:50:38;;;;;;;8.98;2.92;;;;;;;-141.50;100.00;63355.56;5089548;28;20126;-79
2024/01/30 06:53:05;;;;;;;11.32;2.92;;;;;;;-141.50;100.00;63355.56;5108356;28;20039;-77
2024/01/30 06:55:31;;;;;;;5.63;2.50;;;;;;;-141.50;100.00;63355.56;5108087;28;20043;-80
2024/01/30 06:57:58;;;;;;;5.25;2.15;;;;;;;-141.50;100.00;63355.56;5090478;28;20150;-78
2024/01/30 07:00:25;;;;;;;6.13;2.20;;;;;;;-141.50;100.00;63355.56;5108135;28;20112;-77
2024/01/30 07:02:52;;;;;;;5.63;2.40;;;;;;;-141.50;100.00;63355.56;5091615;28;20060;-80
2024/01/30 07:05:18;;;;;;;5.80;2.63;;;;;;;-141.50;100.00;63355.56;5087630;28;20036;-80
2024/01/30 07:07:45;;;;;;;9.02;3.25;;;;;;;-141.50;100.00;63355.56;5089870;28;20494;-79
2024/01/30 07:10:12;;;;;;;6.43;2.58;;;;;;;-141.50;100.00;63355.56;5101389;28;20088;-82
2024/01/30 07:12:40;;;;;;;11.63;2.95;;;;;;;-141.50;100.00;63355.56;5101889;28;20572;-78
2024/01/30 07:15:10;;;;;;;8.48;3.10;;;;;;;-141.50;100.00;63355.56;5063761;28;20052;-81
2024/01/30 07:17:37;;;;;;;7.78;2.78;;;;;;;-141.50;100.00;63355.56;5113374;28;20090;-80
2024/01/30 07:20:05;;;;;;;12.02;4.07;;;;;;;-141.50;100.00;63355.56;5085066;28;20051;-79
2024/01/30 07:22:33;;;;;;;11.95;4.10;;;;;;;-141.50;100.00;63355.56;5067409;28;20052;-79
2024/01/30 07:25:00;;;;;;;7.93;2.55;;;;;;;-141.50;100.00;63355.56;5084925;28;20048;-77
2024/01/30 07:27:27;;;;;;;36.55;8.65;;;;;;;-141.50;100.00;63355.56;5059362;28;20052;-78
2024/01/30 07:29:54;;;;;;;75.70;16.02;;;;;;;-141.50;100.00;63355.56;5084182;28;20055;-77
2024/01/30 07:32:21;;;;;;;106.28;23.70;;;;;;;-141.50;100.00;63355.56;5083454;28;20195;-78
2024/01/30 07:34:47;;;;;;;124.97;28.92;;;;;;;-141.50;100.00;63355.56;5059715;28;20072;-80
2024/01/30 07:37:32;;;;;;;148.75;31.15;;;;;;;-141.50;100.00;63355.56;5077758;28;20118;-79
2024/01/30 07:39:59;;;;;;;65.35;14.35;;;;;;;-141.50;100.00;63355.56;5106503;28;20582;-80
2024/01/30 07:42:26;;;;;;;111.05;23.30;;;;;;;-141.50;100.00;63355.56;5105402;28;20040;-79
2024/01/30 07:44:53;;;;;;;171.40;35.38;;;;;;;-141.50;100.00;63355.56;5105392;28;20055;-81
2024/01/30 07:47:19;;;;;;;209.00;40.78;;;;;;;-141.50;100.00;63355.56;5084324;28;20083;-80
2024/01/30 07:49:46;;;;;;;228.32;41.67;;;;;;;-141.50;100.00;63355.56;5087499;28;20063;-76
2024/01/30 07:52:13;;;;;;;228.20;43.60;;;;;;;-141.50;100.00;63355.56;5096902;28;20067;-76
2024/01/30 07:54:40;;;;;;;83.57;19.13;;;;;;;-141.50;100.00;63355.56;5071230;28;20788;-79
2024/01/30 07:57:06;;;;;;;36.08;9.85;;;;;;;-141.50;100.00;63355.56;5082351;28;20108;-80
2024/01/30 07:59:33;;;;;;;120.40;28.55;;;;;;;-141.50;100.00;63355.56;5075774;28;20063;-79
2024/01/30 08:02:00;;;;;;;46.63;12.35;;;;;;;-141.50;100.00;63355.56;5077088;28;20120;-79
2024/01/30 08:04:27;;;;;;;88.07;21.75;;;;;;;-141.50;100.00;63355.56;5075393;28;20140;-79
2024/01/30 08:06:53;;;;;;;122.78;31.50;;;;;;;-141.50;100.00;63355.56;5087145;28;20068;-79
2024/01/30 08:09:20;;;;;;;42.20;11.32;;;;;;;-141.50;100.00;63355.56;5085532;28;20142;-78
2024/01/30 08:11:47;;;;;;;17.30;5.60;;;;;;;-141.50;100.00;63355.56;5068493;28;20067;-77
2024/01/30 08:14:14;;;;;;;11.63;3.72;;;;;;;-141.50;100.00;63355.56;5095366;28;20048;-77
2024/01/30 08:16:41;;;;;;;7.75;3.38;;;;;;;-141.50;100.00;63355.56;5110350;28;20425;-77
2024/01/30 08:19:07;;;;;;;9.32;3.70;;;;;;;-141.50;100.00;63355.56;5086243;28;20130;-78
2024/01/30 08:21:37;;;;;;;8.40;3.60;;;;;;;-141.50;100.00;63355.56;5057179;28;20089;-80
2024/01/30 08:24:06;;;;;;;15.10;3.70;;;;;;;-141.50;100.00;63355.56;5085578;28;20056;-80
2024/01/30 08:26:33;;;;;;;8.70;3.80;;;;;;;-141.50;100.00;63355.56;5062874;28;20325;-78
2024/01/30 08:29:01;;;;;;;13.48;3.50;;;;;;;-141.50;100.00;63355.56;5087869;28;20087;-78
2024/01/30 08:31:28;;;;;;;9.45;3.53;;;;;;;-141.50;100.00;63355.56;5094569;28;20043;-78
2024/01/30 08:33:55;;;;;;;12.27;4.60;;;;;;;-141.50;100.00;63355.56;5101103;28;20108;-78
2024/01/30 08:36:22;;;;;;;11.68;4.07;;;;;;;-141.50;100.00;63355.56;5064682;28;20094;-77
2024/01/30 08:38:49;;;;;;;11.80;3.25;;;;;;;-141.50;100.00;63355.56;5077725;28;20059;-79
2024/01/30 08:41:15;;;;;;;6.93;3.40;;;;;;;-141.50;100.00;63355.56;5081944;28;20048;-79
2024/01/30 08:43:43;;;;;;;9.38;3.47;;;;;;;-141.50;100.00;63355.56;5102130;28;20062;-79
2024/01/30 08:46:11;;;;;;;9.65;3.63;;;;;;;-141.50;100.00;63355.56;5080064;28;20065;-80
2024/01/30 08:48:38;;;;;;;9.30;3.63;;;;;;;-141.50;100.00;63355.56;5056835;28;20071;-80
2024/01/30 08:51:08;;;;;;;10.80;3.30;;;;;;;-141.50;100.00;63355.56;5078207;28;20059;-79
2024/01/30 08:53:37;;;;;;;11.77;3.83;;;;;;;-141.50;100.00;63355.56;5065272;28;20122;-80
2024/01/30 08:56:04;;;;;;;11.40;3.30;;;;;;;-141.50;100.00;63355.56;5079579;28;20075;-78
2024/01/30 08:58:31;;;;;;;10.07;3.13;;;;;;;-141.50;100.00;63355.56;5085543;28;20112;-79
2024/01/30 09:00:58;;;;;;;9.15;3.60;;;;;;;-141.50;100.00;63355.56;5073072;28;20130;-80
2024/01/30 09:03:25;;;;;;;7.97;3.33;;;;;;;-141.50;100.00;63355.56;5071433;28;20074;-81
2024/01/30 09:05:52;;;;;;;9.15;3.28;;;;;;;-141.50;100.00;63355.56;5080899;28;20117;-78
2024/01/30 09:08:19;;;;;;;11.68;3.40;;;;;;;-141.50;100.00;63355.56;5053348;28;20098;-78
2024/01/30 09:10:46;;;;;;;7.97;2.90;;;;;;;-141.50;100.00;63355.56;5075651;28;20119;-79
2024/01/30 09:13:13;;;;;;;8.77;2.88;;;;;;;-141.50;100.00;63355.56;5067797;28;20075;-79
2024/01/30 09:15:42;;;;;;;9.48;3.20;;;;;;;-141.50;100.00;63355.56;5071689;28;20044;-79
2024/01/30 09:18:09;;;;;;;8.82;2.80;;;;;;;-141.50;100.00;63355.56;5060409;28;20060;-80
2024/01/30 09:20:36;;;;;;;8.35;3.20;;;;;;;-141.50;100.00;63355.56;5093052;28;20105;-79
2024/01/30 09:23:02;;;;;;;8.23;3.03;;;;;;;-141.50;100.00;63355.56;5085755;28;20561;-82
2024/01/30 09:25:29;;;;;;;7.32;3.17;;;;;;;-141.50;100.00;63355.56;5082073;28;20043;-79
2024/01/30 09:27:56;;;;;;;9.90;3.40;;;;;;;-141.50;100.00;63355.56;5086014;28;20078;-81
2024/01/30 09:30:23;;;;;;;13.82;3.55;;;;;;;-141.50;100.00;63355.56;5084831;28;20044;-81
2024/01/30 09:32:50;;;;;;;8.15;2.25;;;;;;;-141.50;100.00;63355.56;5104567;28;20059;-80
2024/01/30 09:35:16;;;;;;;4.78;1.92;;;;;;;-141.50;100.00;63355.56;5102961;28;20079;-80
2024/01/30 09:37:43;;;;;;;4.22;1.60;;;;;;;-141.50;100.00;63355.56;5103585;28;20052;-78
2024/01/30 09:40:10;;;;;;;3.65;1.70;;;;;;;-141.50;100.00;63355.56;5068649;28;20063;-80
2024/01/30 09:42:37;;;;;;;4.20;1.60;;;;;;;-141.50;100.00;63355.56;5078906;28;20059;-80
2024/01/30 09:45:05;;;;;;;4.25;1.80;;;;;;;-141.50;100.00;63355.56;5088592;28;20051;-80
2024/01/30 09:47:43;;;;;;;4.50;1.60;;;;;;;-141.50;100.00;63355.56;5070764;28;20051;-79
2024/01/30 09:50:12;;;;;;;3.42;1.80;;;;;;;-141.50;100.00;63355.56;5095929;28;20060;-81
2024/01/30 09:52:40;;;;;;;6.72;1.70;;;;;;;-141.50;100.00;63355.56;5098162;28;20062;-81
2024/01/30 09:55:07;;;;;;;3.17;1.52;;;;;;;-141.50;100.00;63355.56;5099156;28;20444;-80
2024/01/30 09:57:35;;;;;;;3.85;1.63;;;;;;;-141.50;100.00;63355.56;5081187;28;20091;-78
2024/01/30 10:00:04;;;;;;;3.63;1.60;;;;;;;-141.50;100.00;63355.56;5087653;28;20059;-78
2024/01/30 10:02:38;;;;;;;5.20;1.80;;;;;;;-141.50;100.00;63355.56;5093790;28;20052;-77
2024/01/30 10:05:06;;;;;;;4.00;2.05;;;;;;;-141.50;100.00;63355.56;5052961;28;20090;-77
2024/01/30 10:07:32;;;;;;;9.80;2.17;;;;;;;-141.50;100.00;63355.56;5086955;28;20478;-80
2024/01/30 10:09:59;;;;;;;4.60;1.75;;;;;;;-141.50;100.00;63355.56;5114493;28;20051;-80
2024/01/30 10:12:27;;;;;;;4.35;2.00;;;;;;;-141.50;100.00;63355.56;5104561;28;20062;-79
2024/01/30 10:14:56;;;;;;;4.07;1.77;;;;;;;-141.50;100.00;63355.56;5085562;28;20082;-81
2024/01/30 10:17:25;;;;;;;4.47;1.90;;;;;;;-141.50;100.00;63355.56;5082449;28;20537;-79
2024/01/30 10:19:59;;;;;;;4.80;1.95;;;;;;;-141.50;100.00;63355.56;5088037;28;20063;-80
2024/01/30 10:22:28;;;;;;;5.40;2.17;;;;;;;-141.50;100.00;63355.56;5101573;28;20215;-79
2024/01/30 10:24:55;;;;;;;4.65;1.73;;;;;;;-141.50;100.00;63355.56;5103572;28;20043;-80
2024/01/30 10:27:29;;;;;;;4.80;2.47;;;;;;;-141.50;100.00;63355.56;5104034;28;20112;-79
2024/01/30 10:29:56;;;;;;;8.07;2.40;;;;;;;-141.50;100.00;63355.56;5105166;28;20062;-79
2024/01/30 10:32:23;;;;;;;5.43;1.75;;;;;;;-141.50;100.00;63355.56;5062184;28;20365;-81
2024/01/30 10:34:50;;;;;;;3.90;2.15;;;;;;;-141.50;100.00;63355.56;5080141;28;20087;-79
2024/01/30 10:37:21;;;;;;;4.45;1.75;;;;;;;-141.50;100.00;63355.56;5087057;28;20055;-80
2024/01/30 10:39:50;;;;;;;6.93;2.17;;;;;;;-141.50;100.00;63355.56;5103856;28;20059;-78
2024/01/30 10:42:20;;;;;;;4.65;1.80;;;;;;;-141.50;100.00;63355.56;5103392;28;20467;-79
2024/01/30 10:44:59;;;;;;;6.03;2.05;;;;;;;-141.50;100.00;63355.56;5085556;28;20398;-79
2024/01/30 10:47:27;;;;;;;4.53;2.20;;;;;;;-141.50;100.00;63355.56;5086423;28;20378;-78
2024/01/30 10:49:55;;;;;;;4.25;2.22;;;;;;;-141.50;100.00;63355.56;5086751;28;20521;-80
2024/01/30 10:52:25;;;;;;;4.85;1.70;;;;;;;-141.50;100.00;63355.56;5075254;28;20156;-80
2024/01/30 10:54:54;;;;;;;4.30;1.88;;;;;;;-141.50;100.00;63355.56;5082626;28;20067;-79
2024/01/30 10:57:24;;;;;;;3.58;1.67;;;;;;;-141.50;100.00;63355.56;5086669;28;20217;-79
2024/01/30 10:59:59;;;;;;;5.88;2.10;;;;;;;-141.50;100.00;63355.56;5094976;28;20059;-80
2024/01/30 11:02:27;;;;;;;4.38;2.17;;;;;;;-141.50;100.00;63355.56;5084525;28;20183;-81
2024/01/30 11:04:58;;;;;;;5.20;2.22;;;;;;;-141.50;100.00;63355.56;5088403;28;20346;-81